MSR610 HECA-OKKK
Flight info
| Callsign | MSR610 |
|---|---|
| Flight time | 1h 53m |
| Altitude | 39000 |
| Route | CVO L677 MENLI N697 SISIK W976 TAKSU L550 KARIK B411 DEESA Y415 LOTOK A788 KFR |
| Aircraft | B77W/H-SDE1E2E3FGHIJ2J3J4J5M1RWXY/LB1D1 |
Departure
| Time | 2026-05-04 16:09 |
|---|---|
| Airport | Cairo International Airport (HECA) |
Arrival
| Time | 2026-05-04 18:02 |
|---|---|
| Airport | Kuwait International Airport (OKKK) |
| Time | Latitude | Longitude | Altitude | Speed | Heading |
|---|---|---|---|---|---|
| 2026-05-04 15:23 | 30.10853 | 31.39841 | 392 ft | 0 kts | 75° |
| 2026-05-04 15:53 | 30.10851 | 31.39833 | 392 ft | 2 kts | 77° |
| 2026-05-04 15:53 | 30.10847 | 31.39814 | 392 ft | 2 kts | 76° |
| 2026-05-04 15:53 | 30.10843 | 31.39793 | 392 ft | 2 kts | 89° |
| 2026-05-04 15:54 | 30.10849 | 31.39771 | 392 ft | 2 kts | 126° |
| 2026-05-04 15:54 | 30.10863 | 31.39756 | 392 ft | 2 kts | 156° |
| 2026-05-04 15:54 | 30.10872 | 31.39753 | 392 ft | 0 kts | 165° |
| 2026-05-04 16:01 | 30.10871 | 31.39753 | 392 ft | 1 kts | 165° |
| 2026-05-04 16:02 | 30.10810 | 31.39772 | 392 ft | 14 kts | 164° |
| 2026-05-04 16:02 | 30.10698 | 31.39808 | 392 ft | 17 kts | 165° |
| 2026-05-04 16:02 | 30.10489 | 31.39952 | 392 ft | 17 kts | 65° |
| 2026-05-04 16:03 | 30.10567 | 31.40065 | 392 ft | 16 kts | 49° |
| 2026-05-04 16:03 | 30.10665 | 31.40197 | 392 ft | 18 kts | 50° |
| 2026-05-04 16:03 | 30.10707 | 31.40305 | 392 ft | 13 kts | 119° |
| 2026-05-04 16:03 | 30.10702 | 31.40395 | 392 ft | 7 kts | 47° |
| 2026-05-04 16:04 | 30.10753 | 31.40468 | 392 ft | 15 kts | 50° |
| 2026-05-04 16:04 | 30.10991 | 31.40785 | 393 ft | 23 kts | 49° |
| 2026-05-04 16:04 | 30.11107 | 31.40935 | 393 ft | 21 kts | 47° |
| 2026-05-04 16:05 | 30.11211 | 31.41078 | 393 ft | 20 kts | 50° |
| 2026-05-04 16:05 | 30.11312 | 31.41211 | 393 ft | 20 kts | 49° |
| 2026-05-04 16:05 | 30.11525 | 31.41496 | 393 ft | 22 kts | 49° |
| 2026-05-04 16:06 | 30.11635 | 31.41643 | 393 ft | 22 kts | 49° |
| 2026-05-04 16:06 | 30.11918 | 31.42023 | 393 ft | 23 kts | 47° |
| 2026-05-04 16:07 | 30.12080 | 31.42234 | 393 ft | 24 kts | 49° |
| 2026-05-04 16:07 | 30.12454 | 31.42733 | 393 ft | 23 kts | 59° |
| 2026-05-04 16:08 | 30.12439 | 31.42904 | 393 ft | 21 kts | 141° |
| 2026-05-04 16:08 | 30.11938 | 31.42437 | 393 ft | 91 kts | 229° |
| 2026-05-04 16:09 | 30.10422 | 31.40558 | 1004 ft | 186 kts | 224° |
| 2026-05-04 16:09 | 30.08000 | 31.40553 | 2732 ft | 196 kts | 146° |
| 2026-05-04 16:10 | 30.06183 | 31.43271 | 3801 ft | 228 kts | 119° |
| 2026-05-04 16:11 | 30.03187 | 31.48228 | 5755 ft | 274 kts | 126° |
| 2026-05-04 16:11 | 30.01932 | 31.50171 | 6523 ft | 289 kts | 127° |
| 2026-05-04 16:12 | 29.98086 | 31.56123 | 9132 ft | 312 kts | 128° |
| 2026-05-04 16:12 | 29.94019 | 31.62407 | 11268 ft | 348 kts | 129° |
| 2026-05-04 16:13 | 29.90867 | 31.67273 | 12546 ft | 383 kts | 130° |
| 2026-05-04 16:13 | 29.87295 | 31.72848 | 13863 ft | 420 kts | 130° |
| 2026-05-04 16:14 | 29.83386 | 31.78947 | 15685 ft | 444 kts | 130° |
| 2026-05-04 16:14 | 29.79434 | 31.85303 | 17737 ft | 462 kts | 124° |
| 2026-05-04 16:15 | 29.75987 | 31.97061 | 20599 ft | 492 kts | 106° |
| 2026-05-04 16:16 | 29.74157 | 32.05455 | 22404 ft | 506 kts | 107° |
| 2026-05-04 16:16 | 29.71394 | 32.17944 | 24964 ft | 524 kts | 107° |
| 2026-05-04 16:17 | 29.69511 | 32.26377 | 26587 ft | 535 kts | 107° |
| 2026-05-04 16:18 | 29.66422 | 32.40127 | 29028 ft | 553 kts | 107° |
| 2026-05-04 16:18 | 29.65374 | 32.44777 | 29874 ft | 556 kts | 107° |
| 2026-05-04 16:19 | 29.62259 | 32.58549 | 32884 ft | 547 kts | 108° |
| 2026-05-04 16:19 | 29.60361 | 32.67545 | 34335 ft | 550 kts | 102° |
| 2026-05-04 16:20 | 29.60093 | 32.81831 | 36197 ft | 553 kts | 91° |
| 2026-05-04 16:20 | 29.60202 | 32.91298 | 37034 ft | 556 kts | 91° |
| 2026-05-04 16:21 | 29.60339 | 33.05558 | 36870 ft | 554 kts | 92° |
| 2026-05-04 16:22 | 29.60416 | 33.15036 | 37081 ft | 557 kts | 91° |
| 2026-05-04 16:23 | 29.60601 | 33.43666 | 37085 ft | 556 kts | 92° |
| 2026-05-04 16:25 | 29.60720 | 33.72110 | 37073 ft | 556 kts | 92° |
| 2026-05-04 16:26 | 29.60717 | 34.05298 | 37085 ft | 557 kts | 93° |
| 2026-05-04 16:28 | 29.60664 | 34.29064 | 37081 ft | 559 kts | 92° |
| 2026-05-04 16:29 | 29.56833 | 34.61183 | 37090 ft | 533 kts | 128° |
| 2026-05-04 16:30 | 29.49184 | 34.71550 | 38104 ft | 526 kts | 135° |
| 2026-05-04 16:31 | 29.45328 | 34.79642 | 39042 ft | 543 kts | 116° |
| 2026-05-04 16:31 | 29.42516 | 34.93580 | 39028 ft | 557 kts | 100° |
| 2026-05-04 16:32 | 29.43730 | 35.07473 | 39042 ft | 567 kts | 75° |
| 2026-05-04 16:33 | 29.48042 | 35.25626 | 39081 ft | 567 kts | 75° |
| 2026-05-04 16:34 | 29.51240 | 35.39286 | 39080 ft | 568 kts | 75° |
| 2026-05-04 16:35 | 29.57824 | 35.67225 | 39068 ft | 568 kts | 75° |
| 2026-05-04 16:36 | 29.61097 | 35.81083 | 39065 ft | 569 kts | 75° |
| 2026-05-04 16:37 | 29.63516 | 35.95147 | 39070 ft | 567 kts | 81° |
| 2026-05-04 16:38 | 29.66487 | 36.13879 | 39073 ft | 567 kts | 81° |
| 2026-05-04 16:39 | 29.70034 | 36.36081 | 39073 ft | 566 kts | 81° |
| 2026-05-04 16:40 | 29.73038 | 36.54664 | 39072 ft | 567 kts | 81° |
| 2026-05-04 16:41 | 29.73198 | 36.78432 | 39054 ft | 553 kts | 108° |
| 2026-05-04 16:43 | 29.68484 | 37.02296 | 39037 ft | 551 kts | 109° |
| 2026-05-04 16:43 | 29.65639 | 37.16476 | 39068 ft | 551 kts | 109° |
| 2026-05-04 16:45 | 29.59982 | 37.44383 | 39075 ft | 547 kts | 109° |
| 2026-05-04 16:46 | 29.55253 | 37.67457 | 39037 ft | 547 kts | 110° |
| 2026-05-04 16:47 | 29.51432 | 37.85943 | 39015 ft | 547 kts | 110° |
| 2026-05-04 16:48 | 29.47611 | 38.04867 | 39008 ft | 548 kts | 108° |
| 2026-05-04 16:49 | 29.44269 | 38.23921 | 39007 ft | 552 kts | 108° |
| 2026-05-04 16:50 | 29.40864 | 38.43023 | 39007 ft | 549 kts | 108° |
| 2026-05-04 16:51 | 29.38315 | 38.57162 | 39017 ft | 552 kts | 108° |
| 2026-05-04 16:52 | 29.34884 | 38.76047 | 39011 ft | 551 kts | 109° |
| 2026-05-04 16:53 | 29.32307 | 38.90128 | 39010 ft | 548 kts | 109° |
| 2026-05-04 16:54 | 29.28460 | 39.08679 | 39002 ft | 545 kts | 111° |
| 2026-05-04 16:55 | 29.22572 | 39.36528 | 39007 ft | 548 kts | 111° |
| 2026-05-04 16:56 | 29.17613 | 39.59817 | 39019 ft | 544 kts | 111° |
| 2026-05-04 16:57 | 29.14723 | 39.73295 | 38992 ft | 544 kts | 111° |
| 2026-05-04 16:58 | 29.10843 | 39.91278 | 39002 ft | 545 kts | 111° |
| 2026-05-04 17:00 | 29.06519 | 40.18637 | 39012 ft | 549 kts | 107° |
| 2026-05-04 17:01 | 29.02901 | 40.41380 | 39006 ft | 550 kts | 107° |
| 2026-05-04 17:02 | 28.99937 | 40.59745 | 39004 ft | 547 kts | 107° |
| 2026-05-04 17:03 | 28.97706 | 40.73436 | 38992 ft | 548 kts | 108° |
| 2026-05-04 17:03 | 28.95443 | 40.87224 | 38987 ft | 547 kts | 108° |
| 2026-05-04 17:04 | 28.92432 | 41.05426 | 38987 ft | 548 kts | 107° |
| 2026-05-04 17:05 | 28.89397 | 41.23621 | 38983 ft | 548 kts | 107° |
| 2026-05-04 17:06 | 28.87019 | 41.37770 | 38983 ft | 547 kts | 107° |
| 2026-05-04 17:07 | 28.84906 | 41.50262 | 38981 ft | 549 kts | 107° |
| 2026-05-04 17:07 | 28.83030 | 41.61279 | 38990 ft | 553 kts | 107° |
| 2026-05-04 17:08 | 28.80641 | 41.75260 | 38973 ft | 551 kts | 108° |
| 2026-05-04 17:09 | 28.79025 | 41.84645 | 38979 ft | 551 kts | 108° |
| 2026-05-04 17:09 | 28.77426 | 41.93905 | 38963 ft | 551 kts | 108° |
| 2026-05-04 17:10 | 28.73355 | 42.17294 | 38975 ft | 551 kts | 108° |
| 2026-05-04 17:11 | 28.71726 | 42.26593 | 38974 ft | 550 kts | 108° |
| 2026-05-04 17:12 | 28.69233 | 42.40729 | 38966 ft | 549 kts | 108° |
| 2026-05-04 17:13 | 28.65075 | 42.64121 | 38967 ft | 549 kts | 108° |
| 2026-05-04 17:14 | 28.61591 | 42.81862 | 38966 ft | 544 kts | 110° |
| 2026-05-04 17:15 | 28.58890 | 42.95008 | 38958 ft | 542 kts | 110° |
| 2026-05-04 17:16 | 28.55264 | 43.12612 | 38971 ft | 540 kts | 110° |
| 2026-05-04 17:17 | 28.51723 | 43.29709 | 38965 ft | 543 kts | 110° |
| 2026-05-04 17:18 | 28.48095 | 43.47118 | 38960 ft | 543 kts | 110° |
| 2026-05-04 17:19 | 28.44457 | 43.64462 | 38968 ft | 543 kts | 110° |
| 2026-05-04 17:20 | 28.40813 | 43.81713 | 38958 ft | 542 kts | 110° |
| 2026-05-04 17:20 | 28.38044 | 43.94909 | 38948 ft | 541 kts | 110° |
| 2026-05-04 17:21 | 28.34365 | 44.12547 | 38938 ft | 542 kts | 110° |
| 2026-05-04 17:22 | 28.32496 | 44.21459 | 38941 ft | 541 kts | 110° |
| 2026-05-04 17:23 | 28.28753 | 44.39197 | 38922 ft | 543 kts | 110° |
| 2026-05-04 17:24 | 28.25968 | 44.52328 | 38921 ft | 540 kts | 110° |
| 2026-05-04 17:25 | 28.22304 | 44.69495 | 38891 ft | 540 kts | 111° |
| 2026-05-04 17:26 | 28.18670 | 44.86400 | 38894 ft | 544 kts | 111° |
| 2026-05-04 17:27 | 28.15003 | 45.07966 | 38886 ft | 556 kts | 92° |
| 2026-05-04 17:27 | 28.16248 | 45.17016 | 38892 ft | 567 kts | 79° |
| 2026-05-04 17:28 | 28.18138 | 45.25825 | 38891 ft | 565 kts | 79° |
| 2026-05-04 17:29 | 28.23693 | 45.52399 | 38889 ft | 564 kts | 79° |
| 2026-05-04 17:31 | 28.28215 | 45.74506 | 38864 ft | 566 kts | 80° |
| 2026-05-04 17:32 | 28.32711 | 45.96739 | 38847 ft | 564 kts | 80° |
| 2026-05-04 17:33 | 28.36178 | 46.14177 | 38847 ft | 564 kts | 83° |
| 2026-05-04 17:34 | 28.38681 | 46.31917 | 38866 ft | 563 kts | 84° |
| 2026-05-04 17:35 | 28.40522 | 46.44987 | 38199 ft | 548 kts | 84° |
| 2026-05-04 17:35 | 28.41733 | 46.53605 | 36338 ft | 559 kts | 84° |
| 2026-05-04 17:35 | 28.42335 | 46.57877 | 35910 ft | 552 kts | 84° |
| 2026-05-04 17:36 | 28.42941 | 46.62185 | 35878 ft | 552 kts | 83° |
| 2026-05-04 17:36 | 28.44174 | 46.70983 | 35850 ft | 560 kts | 84° |
| 2026-05-04 17:37 | 28.45407 | 46.79794 | 35848 ft | 557 kts | 84° |
| 2026-05-04 17:37 | 28.46637 | 46.88635 | 35841 ft | 559 kts | 84° |
| 2026-05-04 17:38 | 28.47852 | 46.97402 | 35766 ft | 554 kts | 84° |
| 2026-05-04 17:38 | 28.48453 | 47.01756 | 35492 ft | 555 kts | 84° |
| 2026-05-04 17:38 | 28.49052 | 47.06111 | 35168 ft | 558 kts | 84° |
| 2026-05-04 17:38 | 28.49645 | 47.10432 | 34977 ft | 557 kts | 84° |
| 2026-05-04 17:39 | 28.50830 | 47.19089 | 34581 ft | 556 kts | 84° |
| 2026-05-04 17:39 | 28.51427 | 47.23466 | 33990 ft | 553 kts | 83° |
| 2026-05-04 17:39 | 28.52025 | 47.27871 | 32793 ft | 563 kts | 83° |
| 2026-05-04 17:40 | 28.52619 | 47.32252 | 31741 ft | 570 kts | 83° |
| 2026-05-04 17:40 | 28.53231 | 47.36785 | 30677 ft | 576 kts | 82° |
| 2026-05-04 17:40 | 28.53841 | 47.41298 | 29950 ft | 573 kts | 83° |
| 2026-05-04 17:40 | 28.54436 | 47.45716 | 29386 ft | 567 kts | 83° |
| 2026-05-04 17:41 | 28.55031 | 47.50145 | 28722 ft | 563 kts | 82° |
| 2026-05-04 17:41 | 28.55632 | 47.54624 | 28008 ft | 559 kts | 82° |
| 2026-05-04 17:41 | 28.56219 | 47.59014 | 27421 ft | 553 kts | 82° |
| 2026-05-04 17:41 | 28.56806 | 47.63419 | 26768 ft | 548 kts | 83° |
| 2026-05-04 17:42 | 28.57165 | 47.67770 | 26077 ft | 542 kts | 89° |
| 2026-05-04 17:42 | 28.57291 | 47.72166 | 25284 ft | 539 kts | 90° |
| 2026-05-04 17:42 | 28.57391 | 47.76477 | 24520 ft | 534 kts | 90° |
| 2026-05-04 17:42 | 28.57488 | 47.80826 | 23902 ft | 523 kts | 90° |
| 2026-05-04 17:43 | 28.57583 | 47.85088 | 23136 ft | 511 kts | 90° |
| 2026-05-04 17:43 | 28.57675 | 47.89249 | 22389 ft | 500 kts | 90° |
| 2026-05-04 17:43 | 28.57763 | 47.93289 | 21692 ft | 488 kts | 89° |
| 2026-05-04 17:43 | 28.58030 | 47.97283 | 21035 ft | 478 kts | 81° |
| 2026-05-04 17:44 | 28.58815 | 48.01033 | 20377 ft | 473 kts | 71° |
| 2026-05-04 17:44 | 28.60110 | 48.04508 | 19962 ft | 461 kts | 60° |
| 2026-05-04 17:44 | 28.61902 | 48.07666 | 19798 ft | 442 kts | 49° |
| 2026-05-04 17:44 | 28.64033 | 48.10311 | 19419 ft | 430 kts | 39° |
| 2026-05-04 17:45 | 28.66442 | 48.12400 | 19024 ft | 416 kts | 27° |
| 2026-05-04 17:45 | 28.69061 | 48.13913 | 18910 ft | 395 kts | 17° |
| 2026-05-04 17:45 | 28.71727 | 48.14858 | 18863 ft | 373 kts | 7° |
| 2026-05-04 17:45 | 28.74357 | 48.15266 | 18833 ft | 349 kts | 354° |
| 2026-05-04 17:46 | 28.76798 | 48.14882 | 18583 ft | 330 kts | 338° |
| 2026-05-04 17:46 | 28.79128 | 48.13957 | 17723 ft | 340 kts | 334° |
| 2026-05-04 17:46 | 28.81488 | 48.12916 | 16558 ft | 358 kts | 334° |
| 2026-05-04 17:46 | 28.83823 | 48.11851 | 15496 ft | 372 kts | 333° |
| 2026-05-04 17:47 | 28.86266 | 48.10724 | 14683 ft | 376 kts | 333° |
| 2026-05-04 17:47 | 28.88548 | 48.09390 | 14155 ft | 368 kts | 324° |
| 2026-05-04 17:47 | 28.90712 | 48.07846 | 13668 ft | 363 kts | 323° |
| 2026-05-04 17:47 | 28.92826 | 48.06322 | 13171 ft | 360 kts | 323° |
| 2026-05-04 17:48 | 28.94959 | 48.04781 | 12662 ft | 358 kts | 324° |
| 2026-05-04 17:48 | 28.97048 | 48.03259 | 12288 ft | 361 kts | 323° |
| 2026-05-04 17:48 | 28.99196 | 48.01684 | 11919 ft | 361 kts | 323° |
| 2026-05-04 17:48 | 29.01333 | 48.00107 | 11552 ft | 360 kts | 323° |
| 2026-05-04 17:49 | 29.03469 | 47.98517 | 11169 ft | 359 kts | 324° |
| 2026-05-04 17:49 | 29.05583 | 47.96930 | 10939 ft | 354 kts | 323° |
| 2026-05-04 17:49 | 29.07707 | 47.95323 | 10451 ft | 351 kts | 324° |
| 2026-05-04 17:49 | 29.09766 | 47.93746 | 9976 ft | 348 kts | 324° |
| 2026-05-04 17:50 | 29.11801 | 47.92167 | 9503 ft | 344 kts | 323° |
| 2026-05-04 17:50 | 29.13763 | 47.90658 | 9406 ft | 330 kts | 327° |
| 2026-05-04 17:50 | 29.15783 | 47.89494 | 9392 ft | 315 kts | 333° |
| 2026-05-04 17:50 | 29.17730 | 47.88474 | 9305 ft | 299 kts | 334° |
| 2026-05-04 17:51 | 29.19592 | 47.87508 | 9218 ft | 288 kts | 334° |
| 2026-05-04 17:51 | 29.21468 | 47.86542 | 8717 ft | 294 kts | 334° |
| 2026-05-04 17:51 | 29.23381 | 47.85542 | 8321 ft | 295 kts | 334° |
| 2026-05-04 17:51 | 29.25293 | 47.84533 | 8039 ft | 291 kts | 334° |
| 2026-05-04 17:52 | 29.27169 | 47.83536 | 7677 ft | 291 kts | 334° |
| 2026-05-04 17:52 | 29.29080 | 47.82510 | 7315 ft | 290 kts | 334° |
| 2026-05-04 17:52 | 29.30953 | 47.81489 | 7008 ft | 288 kts | 334° |
| 2026-05-04 17:52 | 29.32772 | 47.80484 | 6655 ft | 288 kts | 334° |
| 2026-05-04 17:53 | 29.34590 | 47.79466 | 6594 ft | 275 kts | 334° |
| 2026-05-04 17:53 | 29.36321 | 47.78487 | 6562 ft | 262 kts | 334° |
| 2026-05-04 17:53 | 29.37950 | 47.77554 | 6508 ft | 251 kts | 334° |
| 2026-05-04 17:53 | 29.39532 | 47.76637 | 6266 ft | 249 kts | 334° |
| 2026-05-04 17:54 | 29.41096 | 47.75717 | 5965 ft | 249 kts | 334° |
| 2026-05-04 17:54 | 29.42647 | 47.74799 | 5768 ft | 245 kts | 334° |
| 2026-05-04 17:54 | 29.44144 | 47.73902 | 5655 ft | 237 kts | 334° |
| 2026-05-04 17:54 | 29.45667 | 47.73155 | 5374 ft | 235 kts | 352° |
| 2026-05-04 17:55 | 29.47319 | 47.73318 | 4988 ft | 234 kts | 25° |
| 2026-05-04 17:55 | 29.48589 | 47.74463 | 4694 ft | 229 kts | 58° |
| 2026-05-04 17:55 | 29.49088 | 47.76173 | 4397 ft | 227 kts | 90° |
| 2026-05-04 17:55 | 29.48673 | 47.77892 | 4207 ft | 220 kts | 124° |
| 2026-05-04 17:56 | 29.47683 | 47.79194 | 4178 ft | 207 kts | 131° |
| 2026-05-04 17:56 | 29.46782 | 47.80506 | 3961 ft | 205 kts | 127° |
| 2026-05-04 17:56 | 29.45745 | 47.81695 | 3708 ft | 205 kts | 141° |
| 2026-05-04 17:56 | 29.44511 | 47.82607 | 3459 ft | 206 kts | 149° |
| 2026-05-04 17:57 | 29.43234 | 47.83366 | 3231 ft | 205 kts | 152° |
| 2026-05-04 17:57 | 29.41958 | 47.84065 | 3172 ft | 193 kts | 152° |
| 2026-05-04 17:57 | 29.40759 | 47.84699 | 3139 ft | 179 kts | 152° |
| 2026-05-04 17:57 | 29.39652 | 47.85279 | 3010 ft | 172 kts | 152° |
| 2026-05-04 17:58 | 29.38573 | 47.85847 | 2789 ft | 169 kts | 152° |
| 2026-05-04 17:58 | 29.37497 | 47.86417 | 2545 ft | 168 kts | 152° |
| 2026-05-04 17:58 | 29.36422 | 47.86985 | 2315 ft | 166 kts | 152° |
| 2026-05-04 17:58 | 29.35333 | 47.87562 | 2063 ft | 165 kts | 152° |
| 2026-05-04 17:59 | 29.34263 | 47.88130 | 2017 ft | 166 kts | 152° |
| 2026-05-04 17:59 | 29.33222 | 47.88683 | 2008 ft | 165 kts | 152° |
| 2026-05-04 17:59 | 29.31059 | 47.89831 | 1839 ft | 163 kts | 152° |
| 2026-05-04 18:00 | 29.29975 | 47.90408 | 1628 ft | 164 kts | 152° |
| 2026-05-04 18:00 | 29.28911 | 47.90972 | 1411 ft | 161 kts | 152° |
| 2026-05-04 18:00 | 29.27917 | 47.91499 | 1214 ft | 150 kts | 152° |
| 2026-05-04 18:00 | 29.26959 | 47.92008 | 1029 ft | 145 kts | 152° |
| 2026-05-04 18:01 | 29.26033 | 47.92500 | 839 ft | 143 kts | 152° |
| 2026-05-04 18:01 | 29.25119 | 47.92997 | 610 ft | 140 kts | 153° |
| 2026-05-04 18:01 | 29.24207 | 47.93481 | 539 ft | 142 kts | 153° |
| 2026-05-04 18:02 | 29.22356 | 47.94455 | 165 ft | 135 kts | 152° |
| 2026-05-04 18:02 | 29.21601 | 47.94847 | 161 ft | 94 kts | 156° |
| 2026-05-04 18:02 | 29.21096 | 47.95113 | 164 ft | 66 kts | 155° |
| 2026-05-04 18:02 | 29.20783 | 47.95281 | 168 ft | 30 kts | 153° |
| 2026-05-04 18:03 | 29.20638 | 47.95405 | 171 ft | 26 kts | 125° |
| 2026-05-04 18:03 | 29.20558 | 47.95554 | 172 ft | 11 kts | 97° |
| 2026-05-04 18:03 | 29.20629 | 47.95604 | 171 ft | 19 kts | 335° |
| 2026-05-04 18:03 | 29.20775 | 47.95529 | 168 ft | 25 kts | 335° |
| 2026-05-04 18:04 | 29.20940 | 47.95442 | 167 ft | 16 kts | 334° |
| 2026-05-04 18:04 | 29.21044 | 47.95386 | 166 ft | 16 kts | 334° |
| 2026-05-04 18:04 | 29.21268 | 47.95266 | 163 ft | 17 kts | 336° |
| 2026-05-04 18:05 | 29.21381 | 47.95208 | 162 ft | 17 kts | 336° |
| 2026-05-04 18:05 | 29.21494 | 47.95147 | 161 ft | 17 kts | 334° |
| 2026-05-04 18:05 | 29.21602 | 47.95089 | 161 ft | 16 kts | 335° |
| 2026-05-04 18:05 | 29.21710 | 47.95032 | 161 ft | 16 kts | 335° |
| 2026-05-04 18:06 | 29.21913 | 47.94942 | 161 ft | 14 kts | 12° |
| 2026-05-04 18:06 | 29.21973 | 47.95028 | 161 ft | 14 kts | 64° |
| 2026-05-04 18:06 | 29.22019 | 47.95138 | 161 ft | 16 kts | 64° |
| 2026-05-04 18:07 | 29.22066 | 47.95256 | 164 ft | 16 kts | 65° |
| 2026-05-04 18:07 | 29.22115 | 47.95377 | 164 ft | 17 kts | 65° |
| 2026-05-04 18:07 | 29.22169 | 47.95511 | 164 ft | 19 kts | 63° |
| 2026-05-04 18:07 | 29.22231 | 47.95660 | 161 ft | 22 kts | 65° |
| 2026-05-04 18:08 | 29.22300 | 47.95831 | 161 ft | 24 kts | 65° |
| 2026-05-04 18:08 | 29.22378 | 47.96020 | 158 ft | 27 kts | 65° |
| 2026-05-04 18:08 | 29.22446 | 47.96186 | 158 ft | 21 kts | 65° |
| 2026-05-04 18:08 | 29.22510 | 47.96343 | 157 ft | 22 kts | 63° |
| 2026-05-04 18:09 | 29.22633 | 47.96622 | 158 ft | 15 kts | 34° |
| 2026-05-04 18:09 | 29.22844 | 47.96547 | 155 ft | 16 kts | 335° |
| 2026-05-04 18:10 | 29.22940 | 47.96496 | 154 ft | 8 kts | 336° |
| 2026-05-04 18:10 | 29.22962 | 47.96487 | 154 ft | 0 kts | 342° |
| 2026-05-04 18:11 | 29.22964 | 47.96486 | 154 ft | 0 kts | 342° |
| 2026-05-04 18:11 | 29.22972 | 47.96484 | 154 ft | 1 kts | 346° |
| 2026-05-04 18:11 | 29.22978 | 47.96482 | 154 ft | 0 kts | 346° |
| 2026-05-04 18:13 | 29.22979 | 47.96482 | 154 ft | 0 kts | 347° |
| 2026-05-04 18:13 | 29.23013 | 47.96498 | 154 ft | 8 kts | 54° |
| 2026-05-04 18:13 | 29.23113 | 47.96746 | 155 ft | 24 kts | 64° |
| 2026-05-04 18:14 | 29.23153 | 47.96836 | 155 ft | 7 kts | 52° |
| 2026-05-04 18:14 | 29.23159 | 47.96843 | 155 ft | 0 kts | 40° |
| 2026-05-04 18:14 | 29.23177 | 47.96847 | 155 ft | 8 kts | 6° |
| 2026-05-04 18:15 | 29.23357 | 47.96769 | 154 ft | 8 kts | 348° |
| 2026-05-04 18:15 | 29.23435 | 47.96890 | 155 ft | 10 kts | 64° |
| 2026-05-04 18:15 | 29.23468 | 47.96969 | 155 ft | 11 kts | 66° |
| 2026-05-04 18:16 | 29.23500 | 47.97049 | 155 ft | 10 kts | 65° |
| 2026-05-04 18:16 | 29.23532 | 47.97129 | 157 ft | 12 kts | 65° |
| 2026-05-04 18:16 | 29.23586 | 47.97175 | 159 ft | 9 kts | 355° |
| 2026-05-04 18:17 | 29.23711 | 47.97101 | 159 ft | 6 kts | 345° |
| 2026-05-04 18:17 | 29.23740 | 47.97123 | 160 ft | 2 kts | 48° |
| 2026-05-04 18:17 | 29.23757 | 47.97147 | 160 ft | 0 kts | 61° |
| 2026-05-04 18:18 | 29.23759 | 47.97152 | 160 ft | 1 kts | 62° |
| 2026-05-04 18:18 | 29.23761 | 47.97156 | 160 ft | 0 kts | 62° |